sensor_id;sensor_type;location;lat;lon;timestamp;P1;durP1;ratioP1;P2;durP2;ratioP2
66272;SDS011;58450;52.150;4.466;2023-02-28T00:01:21;5.55;;;2.38;;
66272;SDS011;58450;52.150;4.466;2023-02-28T00:03:49;4.45;;;2.38;;
66272;SDS011;58450;52.150;4.466;2023-02-28T00:06:16;4.03;;;2.03;;
66272;SDS011;58450;52.150;4.466;2023-02-28T00:08:46;5.95;;;2.67;;
66272;SDS011;58450;52.150;4.466;2023-02-28T00:11:14;5.47;;;2.63;;
66272;SDS011;58450;52.150;4.466;2023-02-28T00:13:43;4.78;;;2.30;;
66272;SDS011;58450;52.150;4.466;2023-02-28T00:16:14;3.80;;;2.25;;
66272;SDS011;58450;52.150;4.466;2023-02-28T00:18:44;7.43;;;2.72;;
66272;SDS011;58450;52.150;4.466;2023-02-28T00:21:13;5.72;;;2.63;;
66272;SDS011;58450;52.150;4.466;2023-02-28T00:23:41;6.95;;;2.50;;
66272;SDS011;58450;52.150;4.466;2023-02-28T00:26:10;6.35;;;2.80;;
66272;SDS011;58450;52.150;4.466;2023-02-28T00:28:38;5.28;;;2.42;;
66272;SDS011;58450;52.150;4.466;2023-02-28T00:31:06;6.50;;;2.30;;
66272;SDS011;58450;52.150;4.466;2023-02-28T00:33:33;6.40;;;2.70;;
66272;SDS011;58450;52.150;4.466;2023-02-28T00:36:02;6.55;;;2.67;;
66272;SDS011;58450;52.150;4.466;2023-02-28T00:38:32;7.80;;;2.65;;
66272;SDS011;58450;52.150;4.466;2023-02-28T00:41:00;4.70;;;2.30;;
66272;SDS011;58450;52.150;4.466;2023-02-28T00:43:32;5.68;;;3.00;;
66272;SDS011;58450;52.150;4.466;2023-02-28T00:46:02;4.95;;;2.38;;
66272;SDS011;58450;52.150;4.466;2023-02-28T00:48:31;7.70;;;3.10;;
66272;SDS011;58450;52.150;4.466;2023-02-28T00:50:59;6.38;;;2.35;;
66272;SDS011;58450;52.150;4.466;2023-02-28T00:53:27;4.95;;;2.47;;
66272;SDS011;58450;52.150;4.466;2023-02-28T00:55:55;5.93;;;2.50;;
66272;SDS011;58450;52.150;4.466;2023-02-28T00:58:23;7.43;;;2.80;;
66272;SDS011;58450;52.150;4.466;2023-02-28T01:00:52;8.27;;;3.25;;
66272;SDS011;58450;52.150;4.466;2023-02-28T01:03:20;5.38;;;2.75;;
66272;SDS011;58450;52.150;4.466;2023-02-28T01:05:49;4.97;;;2.78;;
66272;SDS011;58450;52.150;4.466;2023-02-28T01:08:18;5.28;;;2.47;;
66272;SDS011;58450;52.150;4.466;2023-02-28T01:10:46;8.23;;;3.00;;
66272;SDS011;58450;52.150;4.466;2023-02-28T01:13:14;6.47;;;3.22;;
66272;SDS011;58450;52.150;4.466;2023-02-28T01:15:43;6.05;;;2.90;;
66272;SDS011;58450;52.150;4.466;2023-02-28T01:18:18;6.30;;;2.53;;
66272;SDS011;58450;52.150;4.466;2023-02-28T01:20:47;10.13;;;3.22;;
66272;SDS011;58450;52.150;4.466;2023-02-28T01:23:18;5.22;;;2.72;;
66272;SDS011;58450;52.150;4.466;2023-02-28T01:25:47;5.25;;;2.25;;
66272;SDS011;58450;52.150;4.466;2023-02-28T01:28:14;7.63;;;3.17;;
66272;SDS011;58450;52.150;4.466;2023-02-28T01:30:42;5.47;;;2.70;;
66272;SDS011;58450;52.150;4.466;2023-02-28T01:33:09;6.80;;;2.85;;
66272;SDS011;58450;52.150;4.466;2023-02-28T01:35:38;7.07;;;3.30;;
66272;SDS011;58450;52.150;4.466;2023-02-28T01:38:06;7.85;;;2.90;;
66272;SDS011;58450;52.150;4.466;2023-02-28T01:40:33;6.88;;;3.15;;
66272;SDS011;58450;52.150;4.466;2023-02-28T01:43:01;5.75;;;3.00;;
66272;SDS011;58450;52.150;4.466;2023-02-28T01:45:29;7.53;;;2.60;;
66272;SDS011;58450;52.150;4.466;2023-02-28T01:47:59;5.97;;;2.80;;
66272;SDS011;58450;52.150;4.466;2023-02-28T01:50:36;5.63;;;2.60;;
66272;SDS011;58450;52.150;4.466;2023-02-28T01:53:10;7.35;;;2.60;;
66272;SDS011;58450;52.150;4.466;2023-02-28T01:55:44;6.55;;;2.83;;
66272;SDS011;58450;52.150;4.466;2023-02-28T01:58:16;6.50;;;2.80;;
66272;SDS011;58450;52.150;4.466;2023-02-28T02:00:44;5.80;;;2.90;;
66272;SDS011;58450;52.150;4.466;2023-02-28T02:03:12;6.78;;;2.80;;
66272;SDS011;58450;52.150;4.466;2023-02-28T02:05:47;5.47;;;3.00;;
66272;SDS011;58450;52.150;4.466;2023-02-28T02:08:15;6.50;;;3.05;;
66272;SDS011;58450;52.150;4.466;2023-02-28T02:10:48;8.45;;;3.00;;
66272;SDS011;58450;52.150;4.466;2023-02-28T02:13:25;7.07;;;3.10;;
66272;SDS011;58450;52.150;4.466;2023-02-28T02:16:12;8.43;;;3.03;;
66272;SDS011;58450;52.150;4.466;2023-02-28T02:18:57;6.55;;;3.30;;
66272;SDS011;58450;52.150;4.466;2023-02-28T02:22:00;5.38;;;3.28;;
66272;SDS011;58450;52.150;4.466;2023-02-28T02:25:00;8.60;;;3.15;;
66272;SDS011;58450;52.150;4.466;2023-02-28T02:27:52;6.93;;;2.88;;
66272;SDS011;58450;52.150;4.466;2023-02-28T02:31:13;6.07;;;2.92;;
66272;SDS011;58450;52.150;4.466;2023-02-28T02:34:16;6.75;;;3.05;;
66272;SDS011;58450;52.150;4.466;2023-02-28T02:36:58;7.60;;;3.60;;
66272;SDS011;58450;52.150;4.466;2023-02-28T02:39:41;7.63;;;3.67;;
66272;SDS011;58450;52.150;4.466;2023-02-28T02:42:20;8.82;;;3.30;;
66272;SDS011;58450;52.150;4.466;2023-02-28T02:44:58;6.63;;;3.20;;
66272;SDS011;58450;52.150;4.466;2023-02-28T02:47:33;7.88;;;3.50;;
66272;SDS011;58450;52.150;4.466;2023-02-28T02:50:05;6.00;;;3.65;;
66272;SDS011;58450;52.150;4.466;2023-02-28T02:52:40;9.13;;;3.60;;
66272;SDS011;58450;52.150;4.466;2023-02-28T02:55:14;8.27;;;4.10;;
66272;SDS011;58450;52.150;4.466;2023-02-28T02:57:45;8.93;;;3.92;;
66272;SDS011;58450;52.150;4.466;2023-02-28T03:00:19;8.53;;;3.70;;
66272;SDS011;58450;52.150;4.466;2023-02-28T03:02:52;8.10;;;3.88;;
66272;SDS011;58450;52.150;4.466;2023-02-28T03:05:25;8.32;;;4.30;;
66272;SDS011;58450;52.150;4.466;2023-02-28T03:07:57;9.02;;;3.90;;
66272;SDS011;58450;52.150;4.466;2023-02-28T03:10:26;7.97;;;3.70;;
66272;SDS011;58450;52.150;4.466;2023-02-28T03:13:07;8.10;;;3.83;;
66272;SDS011;58450;52.150;4.466;2023-02-28T03:15:54;9.98;;;3.95;;
66272;SDS011;58450;52.150;4.466;2023-02-28T03:18:43;9.38;;;4.20;;
66272;SDS011;58450;52.150;4.466;2023-02-28T03:21:27;8.70;;;4.00;;
66272;SDS011;58450;52.150;4.466;2023-02-28T03:24:03;12.18;;;4.20;;
66272;SDS011;58450;52.150;4.466;2023-02-28T03:26:36;7.78;;;3.78;;
66272;SDS011;58450;52.150;4.466;2023-02-28T03:29:10;6.97;;;3.70;;
66272;SDS011;58450;52.150;4.466;2023-02-28T03:31:50;7.03;;;3.75;;
66272;SDS011;58450;52.150;4.466;2023-02-28T03:34:26;7.97;;;4.10;;
66272;SDS011;58450;52.150;4.466;2023-02-28T03:37:02;9.45;;;4.20;;
66272;SDS011;58450;52.150;4.466;2023-02-28T03:39:40;9.50;;;3.92;;
66272;SDS011;58450;52.150;4.466;2023-02-28T03:42:14;8.70;;;4.40;;
66272;SDS011;58450;52.150;4.466;2023-02-28T03:44:47;8.30;;;3.97;;
66272;SDS011;58450;52.150;4.466;2023-02-28T03:47:24;7.25;;;4.00;;
66272;SDS011;58450;52.150;4.466;2023-02-28T03:50:01;6.15;;;3.80;;
66272;SDS011;58450;52.150;4.466;2023-02-28T03:52:40;9.38;;;3.95;;
66272;SDS011;58450;52.150;4.466;2023-02-28T03:55:17;6.65;;;3.67;;
66272;SDS011;58450;52.150;4.466;2023-02-28T03:57:50;8.02;;;3.83;;
66272;SDS011;58450;52.150;4.466;2023-02-28T04:00:30;7.60;;;3.97;;
66272;SDS011;58450;52.150;4.466;2023-02-28T04:03:03;7.35;;;3.58;;
66272;SDS011;58450;52.150;4.466;2023-02-28T04:05:31;8.00;;;3.63;;
66272;SDS011;58450;52.150;4.466;2023-02-28T04:08:12;8.82;;;3.90;;
66272;SDS011;58450;52.150;4.466;2023-02-28T04:10:39;6.28;;;3.55;;
66272;SDS011;58450;52.150;4.466;2023-02-28T04:13:11;8.77;;;4.18;;
66272;SDS011;58450;52.150;4.466;2023-02-28T04:15:38;7.50;;;4.35;;
66272;SDS011;58450;52.150;4.466;2023-02-28T04:18:07;9.45;;;4.38;;
66272;SDS011;58450;52.150;4.466;2023-02-28T04:20:34;8.63;;;4.30;;
66272;SDS011;58450;52.150;4.466;2023-02-28T04:23:02;8.32;;;4.03;;
66272;SDS011;58450;52.150;4.466;2023-02-28T04:25:31;9.00;;;4.15;;
66272;SDS011;58450;52.150;4.466;2023-02-28T04:27:58;9.75;;;4.43;;
66272;SDS011;58450;52.150;4.466;2023-02-28T04:30:25;7.90;;;4.10;;
66272;SDS011;58450;52.150;4.466;2023-02-28T04:32:55;11.07;;;4.85;;
66272;SDS011;58450;52.150;4.466;2023-02-28T04:35:22;9.10;;;4.40;;
66272;SDS011;58450;52.150;4.466;2023-02-28T04:37:50;9.00;;;4.15;;
66272;SDS011;58450;52.150;4.466;2023-02-28T04:40:17;7.47;;;4.45;;
66272;SDS011;58450;52.150;4.466;2023-02-28T04:42:46;8.63;;;4.43;;
66272;SDS011;58450;52.150;4.466;2023-02-28T04:45:14;6.85;;;4.20;;
66272;SDS011;58450;52.150;4.466;2023-02-28T04:47:43;6.88;;;4.03;;
66272;SDS011;58450;52.150;4.466;2023-02-28T04:50:10;7.40;;;4.13;;
66272;SDS011;58450;52.150;4.466;2023-02-28T04:52:38;8.93;;;4.50;;
66272;SDS011;58450;52.150;4.466;2023-02-28T04:55:05;9.85;;;4.20;;
66272;SDS011;58450;52.150;4.466;2023-02-28T04:57:34;7.30;;;4.20;;
66272;SDS011;58450;52.150;4.466;2023-02-28T05:00:03;8.50;;;4.45;;
66272;SDS011;58450;52.150;4.466;2023-02-28T05:02:37;7.95;;;4.30;;
66272;SDS011;58450;52.150;4.466;2023-02-28T05:05:05;8.75;;;4.72;;
66272;SDS011;58450;52.150;4.466;2023-02-28T05:07:33;9.80;;;4.63;;
66272;SDS011;58450;52.150;4.466;2023-02-28T05:10:01;8.55;;;4.22;;
66272;SDS011;58450;52.150;4.466;2023-02-28T05:12:28;9.52;;;4.40;;
66272;SDS011;58450;52.150;4.466;2023-02-28T05:14:56;11.50;;;4.93;;
66272;SDS011;58450;52.150;4.466;2023-02-28T05:17:24;6.95;;;4.40;;
66272;SDS011;58450;52.150;4.466;2023-02-28T05:19:52;9.55;;;4.50;;
66272;SDS011;58450;52.150;4.466;2023-02-28T05:22:19;8.48;;;4.60;;
66272;SDS011;58450;52.150;4.466;2023-02-28T05:24:47;9.68;;;5.05;;
66272;SDS011;58450;52.150;4.466;2023-02-28T05:27:14;7.50;;;4.65;;
66272;SDS011;58450;52.150;4.466;2023-02-28T05:29:42;6.50;;;3.83;;
66272;SDS011;58450;52.150;4.466;2023-02-28T05:32:11;8.30;;;4.88;;
66272;SDS011;58450;52.150;4.466;2023-02-28T05:34:40;7.90;;;4.53;;
66272;SDS011;58450;52.150;4.466;2023-02-28T05:37:10;8.63;;;4.72;;
66272;SDS011;58450;52.150;4.466;2023-02-28T05:39:39;8.20;;;4.90;;
66272;SDS011;58450;52.150;4.466;2023-02-28T05:42:07;8.20;;;4.47;;
66272;SDS011;58450;52.150;4.466;2023-02-28T05:44:35;7.72;;;4.53;;
66272;SDS011;58450;52.150;4.466;2023-02-28T05:47:03;9.38;;;5.38;;
66272;SDS011;58450;52.150;4.466;2023-02-28T05:49:31;8.65;;;4.82;;
66272;SDS011;58450;52.150;4.466;2023-02-28T05:52:00;8.68;;;4.90;;
66272;SDS011;58450;52.150;4.466;2023-02-28T05:54:27;10.85;;;5.00;;
66272;SDS011;58450;52.150;4.466;2023-02-28T05:56:54;9.35;;;5.03;;
66272;SDS011;58450;52.150;4.466;2023-02-28T05:59:22;10.43;;;5.32;;
66272;SDS011;58450;52.150;4.466;2023-02-28T06:01:49;8.88;;;4.85;;
66272;SDS011;58450;52.150;4.466;2023-02-28T06:04:19;8.95;;;4.95;;
66272;SDS011;58450;52.150;4.466;2023-02-28T06:06:47;10.70;;;5.40;;
66272;SDS011;58450;52.150;4.466;2023-02-28T06:09:17;8.95;;;5.20;;
66272;SDS011;58450;52.150;4.466;2023-02-28T06:11:46;8.82;;;4.88;;
66272;SDS011;58450;52.150;4.466;2023-02-28T06:14:14;10.07;;;5.13;;
66272;SDS011;58450;52.150;4.466;2023-02-28T06:16:46;10.07;;;5.40;;
66272;SDS011;58450;52.150;4.466;2023-02-28T06:19:14;9.18;;;4.97;;
66272;SDS011;58450;52.150;4.466;2023-02-28T06:21:42;10.02;;;5.50;;
66272;SDS011;58450;52.150;4.466;2023-02-28T06:24:10;13.93;;;6.20;;
66272;SDS011;58450;52.150;4.466;2023-02-28T06:26:39;8.07;;;5.47;;
66272;SDS011;58450;52.150;4.466;2023-02-28T06:29:06;11.02;;;5.80;;
66272;SDS011;58450;52.150;4.466;2023-02-28T06:31:34;11.13;;;6.32;;
66272;SDS011;58450;52.150;4.466;2023-02-28T06:34:01;10.38;;;5.78;;
66272;SDS011;58450;52.150;4.466;2023-02-28T06:36:29;10.32;;;5.90;;
66272;SDS011;58450;52.150;4.466;2023-02-28T06:38:57;10.38;;;5.20;;
66272;SDS011;58450;52.150;4.466;2023-02-28T06:41:25;10.93;;;5.70;;
66272;SDS011;58450;52.150;4.466;2023-02-28T06:43:54;10.43;;;5.68;;
66272;SDS011;58450;52.150;4.466;2023-02-28T06:46:23;10.57;;;5.85;;
66272;SDS011;58450;52.150;4.466;2023-02-28T06:48:50;10.80;;;6.00;;
66272;SDS011;58450;52.150;4.466;2023-02-28T06:51:18;10.45;;;5.75;;
66272;SDS011;58450;52.150;4.466;2023-02-28T06:53:47;11.05;;;6.60;;
66272;SDS011;58450;52.150;4.466;2023-02-28T06:56:16;8.45;;;5.55;;
66272;SDS011;58450;52.150;4.466;2023-02-28T06:58:46;11.82;;;5.97;;
66272;SDS011;58450;52.150;4.466;2023-02-28T07:01:15;10.40;;;6.60;;
66272;SDS011;58450;52.150;4.466;2023-02-28T07:03:44;12.63;;;7.00;;
66272;SDS011;58450;52.150;4.466;2023-02-28T07:06:12;12.50;;;6.57;;
66272;SDS011;58450;52.150;4.466;2023-02-28T07:08:40;11.45;;;6.97;;
66272;SDS011;58450;52.150;4.466;2023-02-28T07:11:07;12.75;;;7.40;;
66272;SDS011;58450;52.150;4.466;2023-02-28T07:13:35;11.00;;;7.03;;
66272;SDS011;58450;52.150;4.466;2023-02-28T07:16:04;11.68;;;7.57;;
66272;SDS011;58450;52.150;4.466;2023-02-28T07:18:36;11.43;;;7.30;;
66272;SDS011;58450;52.150;4.466;2023-02-28T07:21:05;11.82;;;6.80;;
66272;SDS011;58450;52.150;4.466;2023-02-28T07:23:35;11.35;;;6.65;;
66272;SDS011;58450;52.150;4.466;2023-02-28T07:26:04;9.18;;;5.90;;
66272;SDS011;58450;52.150;4.466;2023-02-28T07:28:32;10.43;;;5.47;;
66272;SDS011;58450;52.150;4.466;2023-02-28T07:31:03;9.07;;;5.30;;
66272;SDS011;58450;52.150;4.466;2023-02-28T07:33:32;9.93;;;5.03;;
66272;SDS011;58450;52.150;4.466;2023-02-28T07:36:03;8.90;;;5.05;;
66272;SDS011;58450;52.150;4.466;2023-02-28T07:38:33;8.48;;;4.90;;
66272;SDS011;58450;52.150;4.466;2023-02-28T07:41:02;7.25;;;4.47;;
66272;SDS011;58450;52.150;4.466;2023-02-28T07:43:30;6.25;;;4.10;;
66272;SDS011;58450;52.150;4.466;2023-02-28T07:46:01;9.65;;;4.80;;
66272;SDS011;58450;52.150;4.466;2023-02-28T07:48:29;6.70;;;3.88;;
66272;SDS011;58450;52.150;4.466;2023-02-28T07:50:57;9.15;;;4.35;;
66272;SDS011;58450;52.150;4.466;2023-02-28T07:53:27;7.28;;;4.80;;
66272;SDS011;58450;52.150;4.466;2023-02-28T07:55:55;7.53;;;4.78;;
66272;SDS011;58450;52.150;4.466;2023-02-28T07:58:24;8.13;;;4.40;;
66272;SDS011;58450;52.150;4.466;2023-02-28T08:00:53;6.63;;;4.18;;
66272;SDS011;58450;52.150;4.466;2023-02-28T08:03:21;7.88;;;4.30;;
66272;SDS011;58450;52.150;4.466;2023-02-28T08:05:50;8.18;;;4.55;;
66272;SDS011;58450;52.150;4.466;2023-02-28T08:08:19;7.30;;;4.70;;
66272;SDS011;58450;52.150;4.466;2023-02-28T08:10:48;7.85;;;4.45;;
66272;SDS011;58450;52.150;4.466;2023-02-28T08:13:15;9.45;;;4.72;;
66272;SDS011;58450;52.150;4.466;2023-02-28T08:15:43;6.75;;;4.22;;
66272;SDS011;58450;52.150;4.466;2023-02-28T08:18:13;8.05;;;4.90;;
66272;SDS011;58450;52.150;4.466;2023-02-28T08:20:40;7.10;;;4.07;;
66272;SDS011;58450;52.150;4.466;2023-02-28T08:23:08;7.22;;;4.30;;
66272;SDS011;58450;52.150;4.466;2023-02-28T08:25:35;8.95;;;5.00;;
66272;SDS011;58450;52.150;4.466;2023-02-28T08:28:04;7.70;;;5.00;;
66272;SDS011;58450;52.150;4.466;2023-02-28T08:30:31;7.45;;;4.70;;
66272;SDS011;58450;52.150;4.466;2023-02-28T08:32:59;7.70;;;4.10;;
66272;SDS011;58450;52.150;4.466;2023-02-28T08:35:27;6.88;;;4.32;;
66272;SDS011;58450;52.150;4.466;2023-02-28T08:37:54;7.30;;;4.40;;
66272;SDS011;58450;52.150;4.466;2023-02-28T08:40:22;7.63;;;4.43;;
66272;SDS011;58450;52.150;4.466;2023-02-28T08:42:50;7.47;;;4.47;;
66272;SDS011;58450;52.150;4.466;2023-02-28T08:45:18;7.20;;;4.60;;
66272;SDS011;58450;52.150;4.466;2023-02-28T08:47:46;6.25;;;4.13;;
66272;SDS011;58450;52.150;4.466;2023-02-28T08:50:13;6.97;;;4.20;;
66272;SDS011;58450;52.150;4.466;2023-02-28T08:52:42;7.85;;;4.57;;
66272;SDS011;58450;52.150;4.466;2023-02-28T08:55:10;7.93;;;4.60;;
66272;SDS011;58450;52.150;4.466;2023-02-28T08:57:37;6.10;;;4.10;;
66272;SDS011;58450;52.150;4.466;2023-02-28T09:00:05;6.57;;;4.47;;
66272;SDS011;58450;52.150;4.466;2023-02-28T09:02:37;7.13;;;4.32;;
66272;SDS011;58450;52.150;4.466;2023-02-28T09:05:05;7.32;;;4.55;;
66272;SDS011;58450;52.150;4.466;2023-02-28T09:07:34;7.40;;;4.50;;
66272;SDS011;58450;52.150;4.466;2023-02-28T09:10:02;5.57;;;3.95;;
66272;SDS011;58450;52.150;4.466;2023-02-28T09:12:32;6.50;;;4.07;;
66272;SDS011;58450;52.150;4.466;2023-02-28T09:15:01;6.10;;;4.15;;
66272;SDS011;58450;52.150;4.466;2023-02-28T09:17:30;6.65;;;4.20;;
66272;SDS011;58450;52.150;4.466;2023-02-28T09:19:59;5.93;;;4.18;;
66272;SDS011;58450;52.150;4.466;2023-02-28T09:22:26;6.85;;;4.38;;
66272;SDS011;58450;52.150;4.466;2023-02-28T09:24:54;7.60;;;4.57;;
66272;SDS011;58450;52.150;4.466;2023-02-28T09:27:22;7.57;;;4.22;;
66272;SDS011;58450;52.150;4.466;2023-02-28T09:29:49;6.57;;;4.13;;
66272;SDS011;58450;52.150;4.466;2023-02-28T09:32:17;7.18;;;4.35;;
66272;SDS011;58450;52.150;4.466;2023-02-28T09:34:44;6.60;;;4.22;;
66272;SDS011;58450;52.150;4.466;2023-02-28T09:37:13;7.65;;;4.03;;
66272;SDS011;58450;52.150;4.466;2023-02-28T09:39:41;6.88;;;4.50;;
66272;SDS011;58450;52.150;4.466;2023-02-28T09:42:11;6.72;;;4.10;;
66272;SDS011;58450;52.150;4.466;2023-02-28T09:44:52;7.20;;;4.07;;
66272;SDS011;58450;52.150;4.466;2023-02-28T09:47:23;7.25;;;4.00;;
66272;SDS011;58450;52.150;4.466;2023-02-28T09:50:00;6.90;;;3.90;;
66272;SDS011;58450;52.150;4.466;2023-02-28T09:52:44;7.38;;;4.07;;
66272;SDS011;58450;52.150;4.466;2023-02-28T09:55:19;8.15;;;4.20;;
66272;SDS011;58450;52.150;4.466;2023-02-28T09:57:54;8.00;;;4.60;;
66272;SDS011;58450;52.150;4.466;2023-02-28T10:00:27;5.88;;;3.53;;
66272;SDS011;58450;52.150;4.466;2023-02-28T10:03:04;6.03;;;3.47;;
66272;SDS011;58450;52.150;4.466;2023-02-28T10:05:51;6.00;;;3.30;;
66272;SDS011;58450;52.150;4.466;2023-02-28T10:08:27;5.13;;;3.22;;
66272;SDS011;58450;52.150;4.466;2023-02-28T10:11:07;8.30;;;3.50;;
66272;SDS011;58450;52.150;4.466;2023-02-28T10:13:41;5.60;;;3.33;;
66272;SDS011;58450;52.150;4.466;2023-02-28T10:16:24;6.65;;;3.22;;
66272;SDS011;58450;52.150;4.466;2023-02-28T10:18:59;6.97;;;3.28;;
66272;SDS011;58450;52.150;4.466;2023-02-28T10:21:33;6.53;;;3.25;;
66272;SDS011;58450;52.150;4.466;2023-02-28T10:24:14;6.03;;;3.45;;
66272;SDS011;58450;52.150;4.466;2023-02-28T10:26:49;7.22;;;3.10;;
66272;SDS011;58450;52.150;4.466;2023-02-28T10:29:26;5.95;;;2.92;;
66272;SDS011;58450;52.150;4.466;2023-02-28T10:31:55;6.15;;;2.90;;
66272;SDS011;58450;52.150;4.466;2023-02-28T10:34:28;5.97;;;3.67;;
66272;SDS011;58450;52.150;4.466;2023-02-28T10:36:56;4.25;;;2.50;;
66272;SDS011;58450;52.150;4.466;2023-02-28T10:39:41;3.70;;;2.50;;
66272;SDS011;58450;52.150;4.466;2023-02-28T10:42:21;4.63;;;2.95;;
66272;SDS011;58450;52.150;4.466;2023-02-28T10:45:04;5.05;;;2.83;;
66272;SDS011;58450;52.150;4.466;2023-02-28T10:47:39;4.75;;;3.22;;
66272;SDS011;58450;52.150;4.466;2023-02-28T10:53:24;5.28;;;2.70;;
66272;SDS011;58450;52.150;4.466;2023-02-28T10:56:01;5.55;;;3.10;;
66272;SDS011;58450;52.150;4.466;2023-02-28T10:58:42;5.35;;;3.03;;
66272;SDS011;58450;52.150;4.466;2023-02-28T11:01:16;5.60;;;2.88;;
66272;SDS011;58450;52.150;4.466;2023-02-28T11:03:47;5.00;;;2.92;;
66272;SDS011;58450;52.150;4.466;2023-02-28T11:06:17;4.32;;;2.90;;
66272;SDS011;58450;52.150;4.466;2023-02-28T11:08:49;5.55;;;3.03;;
66272;SDS011;58450;52.150;4.466;2023-02-28T11:11:21;4.55;;;2.83;;
66272;SDS011;58450;52.150;4.466;2023-02-28T11:13:52;4.38;;;2.85;;
66272;SDS011;58450;52.150;4.466;2023-02-28T11:16:31;4.38;;;2.80;;
66272;SDS011;58450;52.150;4.466;2023-02-28T11:19:01;5.75;;;2.78;;
66272;SDS011;58450;52.150;4.466;2023-02-28T11:21:34;5.03;;;2.90;;
66272;SDS011;58450;52.150;4.466;2023-02-28T11:26:54;3.80;;;2.40;;
66272;SDS011;58450;52.150;4.466;2023-02-28T11:29:23;4.20;;;2.28;;
66272;SDS011;58450;52.150;4.466;2023-02-28T11:32:04;3.63;;;2.47;;
66272;SDS011;58450;52.150;4.466;2023-02-28T11:34:40;3.67;;;1.90;;
66272;SDS011;58450;52.150;4.466;2023-02-28T11:37:12;3.30;;;1.67;;
66272;SDS011;58450;52.150;4.466;2023-02-28T11:39:45;2.67;;;1.63;;
66272;SDS011;58450;52.150;4.466;2023-02-28T11:42:19;3.88;;;1.80;;
66272;SDS011;58450;52.150;4.466;2023-02-28T11:45:19;3.17;;;1.63;;
66272;SDS011;58450;52.150;4.466;2023-02-28T11:48:04;3.50;;;1.80;;
66272;SDS011;58450;52.150;4.466;2023-02-28T11:50:49;4.88;;;2.53;;
66272;SDS011;58450;52.150;4.466;2023-02-28T11:53:39;3.63;;;1.98;;
66272;SDS011;58450;52.150;4.466;2023-02-28T11:56:33;4.82;;;1.90;;
66272;SDS011;58450;52.150;4.466;2023-02-28T11:59:15;2.30;;;1.60;;
66272;SDS011;58450;52.150;4.466;2023-02-28T12:02:08;2.60;;;1.63;;
66272;SDS011;58450;52.150;4.466;2023-02-28T12:04:52;3.38;;;2.00;;
66272;SDS011;58450;52.150;4.466;2023-02-28T12:07:40;3.90;;;1.85;;
66272;SDS011;58450;52.150;4.466;2023-02-28T12:10:23;4.40;;;1.95;;
66272;SDS011;58450;52.150;4.466;2023-02-28T12:12:59;3.70;;;1.70;;
66272;SDS011;58450;52.150;4.466;2023-02-28T12:19:07;3.42;;;1.67;;
66272;SDS011;58450;52.150;4.466;2023-02-28T12:21:55;3.38;;;1.90;;
66272;SDS011;58450;52.150;4.466;2023-02-28T12:27:49;2.63;;;1.70;;
66272;SDS011;58450;52.150;4.466;2023-02-28T12:30:19;2.42;;;1.73;;
66272;SDS011;58450;52.150;4.466;2023-02-28T12:32:54;2.97;;;1.80;;
66272;SDS011;58450;52.150;4.466;2023-02-28T12:35:32;1.77;;;1.40;;
66272;SDS011;58450;52.150;4.466;2023-02-28T12:38:05;2.58;;;1.50;;
66272;SDS011;58450;52.150;4.466;2023-02-28T12:40:44;2.80;;;1.42;;
66272;SDS011;58450;52.150;4.466;2023-02-28T12:43:18;1.83;;;1.42;;
66272;SDS011;58450;52.150;4.466;2023-02-28T12:45:48;2.80;;;1.50;;
66272;SDS011;58450;52.150;4.466;2023-02-28T12:48:23;3.30;;;1.73;;
66272;SDS011;58450;52.150;4.466;2023-02-28T12:50:58;2.00;;;1.48;;
66272;SDS011;58450;52.150;4.466;2023-02-28T12:53:29;2.58;;;1.50;;
66272;SDS011;58450;52.150;4.466;2023-02-28T12:56:15;2.97;;;1.52;;
66272;SDS011;58450;52.150;4.466;2023-02-28T12:58:55;1.75;;;1.40;;
66272;SDS011;58450;52.150;4.466;2023-02-28T13:07:44;2.38;;;1.30;;
66272;SDS011;58450;52.150;4.466;2023-02-28T13:10:39;3.65;;;1.33;;
66272;SDS011;58450;52.150;4.466;2023-02-28T13:13:13;2.67;;;1.40;;
66272;SDS011;58450;52.150;4.466;2023-02-28T13:16:00;2.92;;;1.60;;
66272;SDS011;58450;52.150;4.466;2023-02-28T13:18:35;1.88;;;1.58;;
66272;SDS011;58450;52.150;4.466;2023-02-28T13:21:08;3.03;;;1.52;;
66272;SDS011;58450;52.150;4.466;2023-02-28T13:23:58;3.15;;;1.67;;
66272;SDS011;58450;52.150;4.466;2023-02-28T13:29:50;3.20;;;1.50;;
66272;SDS011;58450;52.150;4.466;2023-02-28T13:32:30;2.22;;;1.33;;
66272;SDS011;58450;52.150;4.466;2023-02-28T13:44:22;3.05;;;1.50;;
66272;SDS011;58450;52.150;4.466;2023-02-28T13:49:50;1.60;;;1.20;;
66272;SDS011;58450;52.150;4.466;2023-02-28T13:52:20;1.98;;;1.05;;
66272;SDS011;58450;52.150;4.466;2023-02-28T13:54:55;1.63;;;1.02;;
66272;SDS011;58450;52.150;4.466;2023-02-28T14:01:05;1.70;;;1.15;;
66272;SDS011;58450;52.150;4.466;2023-02-28T14:03:56;2.20;;;1.30;;
66272;SDS011;58450;52.150;4.466;2023-02-28T14:06:56;2.50;;;1.30;;
66272;SDS011;58450;52.150;4.466;2023-02-28T14:09:27;1.70;;;1.20;;
66272;SDS011;58450;52.150;4.466;2023-02-28T14:18:28;2.03;;;1.10;;
66272;SDS011;58450;52.150;4.466;2023-02-28T14:21:08;1.77;;;0.95;;
66272;SDS011;58450;52.150;4.466;2023-02-28T14:24:01;2.30;;;1.15;;
66272;SDS011;58450;52.150;4.466;2023-02-28T14:30:02;1.85;;;0.98;;
66272;SDS011;58450;52.150;4.466;2023-02-28T14:32:59;1.90;;;0.90;;
66272;SDS011;58450;52.150;4.466;2023-02-28T14:35:54;1.70;;;1.10;;
66272;SDS011;58450;52.150;4.466;2023-02-28T14:38:33;1.63;;;0.85;;
66272;SDS011;58450;52.150;4.466;2023-02-28T14:41:14;1.42;;;1.02;;
66272;SDS011;58450;52.150;4.466;2023-02-28T14:43:48;2.45;;;0.90;;
66272;SDS011;58450;52.150;4.466;2023-02-28T14:46:22;2.38;;;1.10;;
66272;SDS011;58450;52.150;4.466;2023-02-28T14:48:58;2.80;;;1.00;;
66272;SDS011;58450;52.150;4.466;2023-02-28T14:51:26;2.72;;;0.98;;
66272;SDS011;58450;52.150;4.466;2023-02-28T14:53:56;2.03;;;0.95;;
66272;SDS011;58450;52.150;4.466;2023-02-28T14:56:28;1.30;;;0.90;;
66272;SDS011;58450;52.150;4.466;2023-02-28T14:59:02;2.15;;;1.00;;
66272;SDS011;58450;52.150;4.466;2023-02-28T15:01:32;1.92;;;1.10;;
66272;SDS011;58450;52.150;4.466;2023-02-28T15:04:02;1.60;;;0.90;;
66272;SDS011;58450;52.150;4.466;2023-02-28T15:06:31;1.58;;;0.90;;
66272;SDS011;58450;52.150;4.466;2023-02-28T15:09:07;2.53;;;1.00;;
66272;SDS011;58450;52.150;4.466;2023-02-28T15:11:38;1.35;;;1.00;;
66272;SDS011;58450;52.150;4.466;2023-02-28T15:14:06;1.50;;;1.00;;
66272;SDS011;58450;52.150;4.466;2023-02-28T15:16:42;1.33;;;0.95;;
66272;SDS011;58450;52.150;4.466;2023-02-28T15:19:16;2.17;;;1.10;;
66272;SDS011;58450;52.150;4.466;2023-02-28T15:21:51;2.17;;;1.35;;
66272;SDS011;58450;52.150;4.466;2023-02-28T15:24:27;1.73;;;1.10;;
66272;SDS011;58450;52.150;4.466;2023-02-28T15:27:04;2.33;;;0.90;;
66272;SDS011;58450;52.150;4.466;2023-02-28T15:29:43;2.65;;;1.02;;
66272;SDS011;58450;52.150;4.466;2023-02-28T15:32:24;2.83;;;1.30;;
66272;SDS011;58450;52.150;4.466;2023-02-28T15:34:56;1.88;;;1.10;;
66272;SDS011;58450;52.150;4.466;2023-02-28T15:37:29;1.52;;;1.17;;
66272;SDS011;58450;52.150;4.466;2023-02-28T15:40:10;1.63;;;1.10;;
66272;SDS011;58450;52.150;4.466;2023-02-28T15:42:42;2.88;;;1.30;;
66272;SDS011;58450;52.150;4.466;2023-02-28T15:45:26;2.40;;;1.40;;
66272;SDS011;58450;52.150;4.466;2023-02-28T15:48:00;3.05;;;1.63;;
66272;SDS011;58450;52.150;4.466;2023-02-28T15:50:30;2.15;;;1.40;;
66272;SDS011;58450;52.150;4.466;2023-02-28T15:52:58;2.92;;;1.58;;
66272;SDS011;58450;52.150;4.466;2023-02-28T15:55:28;2.78;;;1.42;;
66272;SDS011;58450;52.150;4.466;2023-02-28T15:57:57;3.20;;;1.38;;
66272;SDS011;58450;52.150;4.466;2023-02-28T16:00:29;1.98;;;1.25;;
66272;SDS011;58450;52.150;4.466;2023-02-28T16:02:59;2.00;;;1.25;;
66272;SDS011;58450;52.150;4.466;2023-02-28T16:05:27;1.52;;;1.08;;
66272;SDS011;58450;52.150;4.466;2023-02-28T16:07:58;2.70;;;1.40;;